Time;durP1;ratioP1;P1;durP2;ratioP2;P2;SDS_P1;SDS_P2;PMS_P1;PMS_P2;Temp;Humidity;BMP_temperature;BMP_pressure;BME280_temperature;BME280_humidity;BME280_pressure;Samples;Min_cycle;Max_cycle;Signal;HPM_P1;HPM_P2
2023/01/03 00:00:47;;;;;;;1999.90;999.90;;;8.40;1.00;;;;;;5013887;28;20505;-68
2023/01/03 00:03:15;;;;;;;1999.90;999.90;;;8.50;1.00;;;;;;5011911;28;20471;-68
2023/01/03 00:05:42;;;;;;;1999.90;999.90;;;8.30;1.00;;;;;;5011848;28;20188;-67
2023/01/03 00:08:08;;;;;;;1999.90;999.90;;;8.20;1.00;;;;;;5014086;28;20897;-68
2023/01/03 00:10:33;;;;;;;1999.90;999.90;;;8.20;1.00;;;;;;5013290;28;20476;-68
2023/01/03 00:13:00;;;;;;;1999.90;999.90;;;;;;;;;;5013593;28;20189;-68
2023/01/03 00:15:25;;;;;;;1999.90;999.90;;;8.40;1.00;;;;;;5015870;28;20217;-68
2023/01/03 00:17:52;;;;;;;1999.90;999.90;;;8.50;1.00;;;;;;5015081;28;20409;-69
2023/01/03 00:20:18;;;;;;;1999.90;999.90;;;8.50;1.00;;;;;;5011055;28;20335;-68
2023/01/03 00:22:44;;;;;;;1999.90;999.90;;;8.60;1.00;;;;;;5010944;28;20450;-69
2023/01/03 00:25:09;;;;;;;1999.90;999.90;;;8.50;1.00;;;;;;5012401;28;20416;-68
2023/01/03 00:27:35;;;;;;;1999.90;999.90;;;8.50;1.00;;;;;;5011979;28;20179;-68
2023/01/03 00:30:00;;;;;;;1999.90;999.90;;;8.50;1.00;;;;;;5013898;28;20338;-68
2023/01/03 00:32:26;;;;;;;1999.90;999.90;;;8.50;1.00;;;;;;5011931;28;20197;-67
2023/01/03 00:34:52;;;;;;;1999.90;999.90;;;8.40;1.00;;;;;;5013114;28;20711;-69
2023/01/03 00:37:17;;;;;;;1999.90;999.90;;;8.50;1.00;;;;;;5011955;28;20433;-67
2023/01/03 00:39:43;;;;;;;1999.90;999.90;;;8.50;1.00;;;;;;5013177;28;20198;-68
2023/01/03 00:42:09;;;;;;;1999.90;999.90;;;8.30;1.00;;;;;;5013862;28;20198;-68
2023/01/03 00:44:35;;;;;;;1999.90;999.90;;;8.20;1.00;;;;;;5013039;28;20432;-69
2023/01/03 00:47:01;;;;;;;1999.90;999.90;;;8.00;1.00;;;;;;5012497;28;20414;-68
2023/01/03 00:49:27;;;;;;;1999.90;999.90;;;8.20;1.00;;;;;;5012117;28;20216;-68
2023/01/03 00:51:52;;;;;;;1999.90;999.90;;;8.20;1.00;;;;;;4974371;28;1074907;-69
2023/01/03 00:54:19;;;;;;;1999.90;999.90;;;8.10;1.00;;;;;;5039789;23;20223;-71
2023/01/03 00:56:47;;;;;;;1999.90;999.90;;;8.10;1.00;;;;;;4992303;28;20719;-72
2023/01/03 00:59:14;;;;;;;1999.90;999.90;;;8.20;1.00;;;;;;4992177;28;20434;-72
2023/01/03 01:01:44;;;;;;;1999.90;999.90;;;7.90;1.00;;;;;;4992275;28;20413;-72
2023/01/03 01:04:13;;;;;;;1999.90;999.90;;;7.90;1.00;;;;;;4992204;28;20429;-71
2023/01/03 01:06:41;;;;;;;1999.90;999.90;;;8.00;1.00;;;;;;4992187;28;20416;-71
2023/01/03 01:09:10;;;;;;;1999.90;999.90;;;7.90;1.00;;;;;;4992050;28;20399;-72
2023/01/03 01:11:36;;;;;;;1999.90;999.90;;;7.90;1.00;;;;;;4992134;28;20461;-72
2023/01/03 01:14:01;;;;;;;1999.90;999.90;;;7.80;1.00;;;;;;4993820;28;20433;-71
2023/01/03 01:16:30;;;;;;;1999.90;999.90;;;7.70;1.00;;;;;;4995813;28;20660;-72
2023/01/03 01:18:58;;;;;;;1999.90;999.90;;;7.70;1.00;;;;;;4995694;28;20166;-71
2023/01/03 01:21:27;;;;;;;1999.90;999.90;;;7.70;5.80;;;;;;4995810;28;20474;-71
2023/01/03 01:23:53;;;;;;;1999.90;999.90;;;7.60;14.70;;;;;;4995708;28;20425;-72
2023/01/03 01:26:21;;;;;;;1999.90;999.90;;;7.60;17.90;;;;;;4995646;28;20414;-72
2023/01/03 01:28:47;;;;;;;1999.90;999.90;;;7.60;16.80;;;;;;4995546;28;20175;-72
2023/01/03 01:31:15;;;;;;;1999.90;999.90;;;7.70;19.80;;;;;;4995572;28;20445;-72
2023/01/03 01:33:42;;;;;;;1999.90;999.90;;;7.50;25.80;;;;;;4995621;28;20421;-72
2023/01/03 01:36:17;;;;;;;1999.90;999.90;;;7.50;27.00;;;;;;4995463;28;20493;-72
2023/01/03 01:38:44;;;;;;;1999.90;999.90;;;7.50;29.10;;;;;;4995567;28;20406;-71
2023/01/03 01:44:36;;;;;;;1999.90;999.90;;;7.40;33.00;;;;;;4995488;28;20411;-72
2023/01/03 01:46:47;;;;;;;1999.90;999.90;;;7.50;51.40;;;;;;4995432;28;20482;-72
2023/01/03 01:49:19;;;;;;;1999.90;999.90;;;7.50;67.90;;;;;;4995203;28;20438;-72
2023/01/03 01:51:45;;;;;;;1999.90;999.90;;;7.50;88.50;;;;;;4995214;28;20553;-71
2023/01/03 01:54:10;;;;;;;1999.90;999.90;;;7.60;90.70;;;;;;4995095;28;20951;-70
2023/01/03 01:56:42;;;;;;;1999.90;999.90;;;7.60;88.40;;;;;;4995114;28;20171;-72
2023/01/03 01:59:08;;;;;;;1999.90;999.90;;;7.70;85.80;;;;;;4995005;28;20423;-72
2023/01/03 02:01:34;;;;;;;1999.90;999.90;;;7.70;68.40;;;;;;4995281;28;20781;-72
2023/01/03 02:04:10;;;;;;;1999.90;999.90;;;7.90;56.90;;;;;;4995077;28;20791;-72
2023/01/03 02:06:37;;;;;;;1999.90;999.90;;;7.70;48.20;;;;;;4995086;28;20800;-71
2023/01/03 02:09:03;;;;;;;1999.90;999.90;;;7.70;46.00;;;;;;4994843;28;20779;-72
2023/01/03 02:15:10;;;;;;;1999.90;999.90;;;7.70;43.00;;;;;;4985670;28;20202;-72
2023/01/03 02:17:57;;;;;;;1999.90;999.90;;;7.70;33.10;;;;;;4994788;28;20397;-72
2023/01/03 02:20:41;;;;;;;1999.90;999.90;;;7.70;34.60;;;;;;4994892;28;20410;-72
2023/01/03 02:23:38;;;;;;;1999.90;999.90;;;7.60;39.20;;;;;;4994713;28;20479;-72
2023/01/03 02:26:28;;;;;;;1999.90;999.90;;;7.70;50.70;;;;;;4994532;28;20460;-71
2023/01/03 02:29:21;;;;;;;1999.90;999.90;;;7.70;56.50;;;;;;4994586;28;20416;-71
2023/01/03 02:31:57;;;;;;;1999.90;999.90;;;7.80;37.60;;;;;;4994542;28;20963;-72
2023/01/03 02:34:30;;;;;;;1999.90;999.90;;;7.70;37.40;;;;;;4994545;28;20830;-72
2023/01/03 02:37:11;;;;;;;1999.90;999.90;;;7.70;30.00;;;;;;4994455;28;20411;-72
2023/01/03 02:40:01;;;;;;;1999.90;999.90;;;7.60;28.50;;;;;;4994291;28;20405;-72
2023/01/03 02:43:04;;;;;;;1999.90;999.90;;;7.60;23.90;;;;;;4994439;28;20772;-72
2023/01/03 02:45:48;;;;;;;1999.90;999.90;;;7.50;27.20;;;;;;4994518;28;20870;-71
2023/01/03 02:48:58;;;;;;;1999.90;999.90;;;7.50;27.50;;;;;;4994079;28;20409;-71
2023/01/03 02:51:35;;;;;;;1999.90;999.90;;;7.50;31.30;;;;;;4991663;28;20520;-72
2023/01/03 02:54:02;;;;;;;1999.90;999.90;;;7.40;39.00;;;;;;4994060;28;20448;-72
2023/01/03 02:56:42;;;;;;;1999.90;999.90;;;7.30;50.10;;;;;;4994032;28;20401;-71
2023/01/03 02:59:12;;;;;;;1999.90;999.90;;;7.40;40.90;;;;;;4993927;28;20409;-72
2023/01/03 03:01:43;;;;;;;1999.90;999.90;;;7.30;44.60;;;;;;4993952;28;20431;-72
2023/01/03 03:04:11;;;;;;;1999.90;999.90;;;7.30;47.40;;;;;;4994092;28;20790;-72
2023/01/03 03:07:05;;;;;;;1999.90;999.90;;;6.60;52.70;;;;;;4993842;28;20411;-72
2023/01/03 03:09:31;;;;;;;1999.90;999.90;;;7.40;57.40;;;;;;4993753;28;20401;-72
2023/01/03 03:14:57;;;;;;;1999.90;999.90;;;7.40;74.40;;;;;;4991471;28;20210;-72
2023/01/03 03:17:29;;;;;;;1999.90;999.90;;;7.40;75.00;;;;;;4993968;28;20923;-72
2023/01/03 03:25:47;;;;;;;1999.90;999.90;;;7.50;88.60;;;;;;4993844;28;20921;-72
2023/01/03 03:28:36;;;;;;;1999.90;999.90;;;7.50;83.70;;;;;;4993261;28;20410;-71
2023/01/03 03:31:08;;;;;;;1999.90;999.90;;;7.60;79.40;;;;;;4993433;28;20546;-73
2023/01/03 03:34:15;;;;;;;1999.90;999.90;;;7.50;74.00;;;;;;4993347;28;20423;-72
2023/01/03 03:36:53;;;;;;;1999.90;999.90;;;7.50;68.00;;;;;;4992942;28;20392;-72
2023/01/03 03:45:07;;;;;;;1999.90;999.90;;;7.30;59.10;;;;;;4993250;28;20428;-72
2023/01/03 03:47:44;;;;;;;1999.90;999.90;;;7.30;62.40;;;;;;4993133;28;20414;-72
2023/01/03 03:50:16;;;;;;;1999.90;999.90;;;7.30;57.10;;;;;;4993066;28;20408;-72
2023/01/03 03:52:46;;;;;;;1999.90;999.90;;;7.50;70.50;;;;;;4993156;28;20767;-71
2023/01/03 03:55:20;;;;;;;1999.90;999.90;;;7.20;47.40;;;;;;4993133;28;20409;-72
2023/01/03 03:58:12;;;;;;;1999.90;999.90;;;7.10;45.50;;;;;;4992713;28;20402;-73
2023/01/03 04:00:40;;;;;;;1999.90;999.90;;;7.10;46.00;;;;;;4992936;28;20410;-72
2023/01/03 04:03:09;;;;;;;1999.90;999.90;;;7.10;55.40;;;;;;4992858;28;20519;-72
2023/01/03 04:05:41;;;;;;;1999.90;999.90;;;7.10;64.30;;;;;;4992873;28;20401;-70
2023/01/03 04:08:07;;;;;;;1999.90;999.90;;;7.10;72.70;;;;;;4992601;28;20820;-72
2023/01/03 04:10:33;;;;;;;1999.90;999.90;;;7.40;87.80;;;;;;4992719;28;20548;-72
2023/01/03 04:12:59;;;;;;;1999.90;999.90;;;7.20;94.50;;;;;;4992708;28;20437;-72
2023/01/03 04:15:24;;;;;;;1999.90;999.90;;;7.20;91.50;;;;;;4992740;28;20877;-72
2023/01/03 04:17:50;;;;;;;1999.90;999.90;;;7.20;87.90;;;;;;4992476;28;20206;-72
2023/01/03 04:20:16;;;;;;;1999.90;999.90;;;7.10;78.70;;;;;;4992803;28;20543;-73
2023/01/03 04:22:41;;;;;;;1999.90;999.90;;;7.20;97.10;;;;;;4992536;28;20158;-73
2023/01/03 04:25:07;;;;;;;1999.90;999.90;;;7.10;79.50;;;;;;4992650;28;20173;-73
2023/01/03 04:27:33;;;;;;;1999.90;999.90;;;7.10;87.60;;;;;;4992495;28;20171;-72
2023/01/03 04:29:59;;;;;;;1999.90;999.90;;;7.10;94.00;;;;;;4992349;28;20922;-72
2023/01/03 04:32:24;;;;;;;1999.90;999.90;;;7.10;99.90;;;;;;4992788;28;20182;-71
2023/01/03 04:34:50;;;;;;;1999.90;999.90;;;7.20;99.90;;;;;;4992484;28;20651;-72
2023/01/03 04:37:16;;;;;;;1999.90;999.90;;;7.10;99.90;;;;;;4992454;28;20175;-70
2023/01/03 04:39:41;;;;;;;1999.90;999.90;;;7.30;99.90;;;;;;4992143;28;20179;-71
2023/01/03 04:44:51;;;;;;;1999.90;999.90;;;7.40;99.90;;;;;;4992509;28;20232;-71
2023/01/03 04:47:17;;;;;;;1999.90;999.90;;;7.50;99.90;;;;;;4992391;28;20444;-70
2023/01/03 04:49:45;;;;;;;1999.90;999.90;;;7.40;99.90;;;;;;4995187;28;20189;-71
2023/01/03 04:52:11;;;;;;;1999.90;999.90;;;7.40;99.90;;;;;;4996361;28;20827;-71
2023/01/03 04:54:38;;;;;;;1999.90;999.90;;;7.40;99.90;;;;;;4996257;28;20869;-71
2023/01/03 04:57:03;;;;;;;1999.90;999.90;;;7.40;99.90;;;;;;4996159;28;20472;-71
2023/01/03 04:59:29;;;;;;;1999.90;999.90;;;7.40;99.90;;;;;;4996154;28;20409;-70
2023/01/03 05:01:54;;;;;;;1999.90;999.90;;;7.40;99.90;;;;;;4996311;28;20174;-71
2023/01/03 05:04:20;;;;;;;1999.90;999.90;;;7.50;99.90;;;;;;4996163;28;20206;-71
2023/01/03 05:06:46;;;;;;;1999.90;999.90;;;7.60;99.90;;;;;;4996063;28;20897;-71
2023/01/03 05:09:11;;;;;;;1999.90;999.90;;;7.60;99.90;;;;;;4995947;28;20185;-71
2023/01/03 05:11:37;;;;;;;1999.90;999.90;;;7.60;99.90;;;;;;4996061;28;20209;-71
2023/01/03 05:14:02;;;;;;;1999.90;999.90;;;7.60;99.90;;;;;;4995986;28;20199;-71
2023/01/03 05:16:28;;;;;;;1999.90;999.90;;;7.50;99.20;;;;;;4995919;28;20592;-71
2023/01/03 05:18:55;;;;;;;1999.90;999.90;;;7.50;94.90;;;;;;4995771;28;20181;-71
2023/01/03 05:26:54;;;;;;;1999.90;999.90;;;7.30;81.70;;;;;;4995984;28;20415;-71
2023/01/03 05:29:21;;;;;;;1999.90;999.90;;;7.10;64.90;;;;;;4995559;28;20439;-71
2023/01/03 05:31:47;;;;;;;1999.90;999.90;;;7.00;65.20;;;;;;4995627;28;20470;-71
2023/01/03 05:34:13;;;;;;;1999.90;999.90;;;6.90;69.20;;;;;;4995603;28;20429;-71
2023/01/03 05:36:39;;;;;;;1999.90;999.90;;;6.80;67.60;;;;;;4995530;28;20405;-71
2023/01/03 05:39:05;;;;;;;1999.90;999.90;;;6.80;64.10;;;;;;4995387;28;20413;-70
2023/01/03 05:44:15;;;;;;;1999.90;999.90;;;6.60;65.10;;;;;;4995685;28;20524;-71
2023/01/03 05:46:41;;;;;;;1999.90;999.90;;;6.60;73.50;;;;;;4995383;28;20436;-71
2023/01/03 05:49:07;;;;;;;1999.90;999.90;;;6.50;73.10;;;;;;4995184;28;20527;-70
2023/01/03 05:51:33;;;;;;;1999.90;999.90;;;6.50;80.20;;;;;;4995309;28;20252;-70
2023/01/03 05:53:58;;;;;;;1999.90;999.90;;;6.60;85.70;;;;;;4995106;28;20581;-70
2023/01/03 05:56:24;;;;;;;1999.90;999.90;;;6.50;65.80;;;;;;4995126;28;20166;-69
2023/01/03 05:58:50;;;;;;;1999.90;999.90;;;6.50;80.00;;;;;;4994978;28;20180;-70
2023/01/03 06:01:15;;;;;;;1999.90;999.90;;;6.60;99.90;;;;;;4995173;28;20187;-71
2023/01/03 06:03:45;;;;;;;1999.90;999.90;;;6.60;99.90;;;;;;4995076;28;20194;-71
2023/01/03 06:06:13;;;;;;;1999.90;999.90;;;6.70;99.90;;;;;;4994955;28;20417;-71
2023/01/03 06:08:39;;;;;;;1999.90;999.90;;;6.70;99.90;;;;;;4994897;28;20848;-70
2023/01/03 06:11:09;;;;;;;1999.90;999.90;;;6.70;99.90;;;;;;4994811;28;20539;-71
2023/01/03 06:13:35;;;;;;;1999.90;999.90;;;6.70;99.90;;;;;;4994939;28;20716;-70
2023/01/03 06:18:50;;;;;;;1999.90;999.90;;;6.80;99.90;;;;;;4994992;28;20265;-71
2023/01/03 06:21:15;;;;;;;1999.90;999.90;;;6.80;99.90;;;;;;4994845;28;20491;-70
2023/01/03 06:23:41;;;;;;;1999.90;999.90;;;6.70;99.90;;;;;;4994559;28;20196;-70
2023/01/03 06:26:07;;;;;;;1999.90;999.90;;;6.70;99.90;;;;;;4994642;28;20949;-71
2023/01/03 06:28:32;;;;;;;1999.90;999.90;;;6.60;99.90;;;;;;4994527;28;20186;-71
2023/01/03 06:30:58;;;;;;;1999.90;999.90;;;6.50;99.90;;;;;;4994566;28;20230;-70
2023/01/03 06:33:23;;;;;;;1999.90;999.90;;;6.50;99.90;;;;;;4994574;28;20198;-70
2023/01/03 06:35:49;;;;;;;1999.90;999.90;;;6.50;99.90;;;;;;4994574;28;20167;-68
2023/01/03 06:38:14;;;;;;;1999.90;999.90;;;6.50;99.90;;;;;;4994170;28;20178;-71
2023/01/03 06:40:46;;;;;;;1999.90;999.90;;;6.50;99.90;;;;;;4994446;28;20178;-71
2023/01/03 06:43:12;;;;;;;1999.90;999.90;;;6.40;99.90;;;;;;4994535;28;20576;-70
2023/01/03 06:53:53;;;;;;;1999.90;999.90;;;6.40;99.90;;;;;;4994425;28;20540;-69
2023/01/03 06:56:18;;;;;;;1999.90;999.90;;;6.40;99.90;;;;;;4994051;28;20902;-70
2023/01/03 06:58:44;;;;;;;1999.90;999.90;;;6.40;99.90;;;;;;4993956;28;20213;-71
2023/01/03 07:01:12;;;;;;;1999.90;999.90;;;6.40;99.90;;;;;;4993982;28;20176;-69
2023/01/03 07:03:38;;;;;;;1999.90;999.90;;;6.40;99.90;;;;;;4994032;28;20194;-69
2023/01/03 07:06:03;;;;;;;1999.90;999.90;;;6.30;99.90;;;;;;4992895;28;20416;-70
2023/01/03 07:08:29;;;;;;;1999.90;999.90;;;6.40;99.90;;;;;;4993815;28;20181;-69
2023/01/03 07:10:55;;;;;;;1999.90;999.90;;;6.40;99.90;;;;;;4993189;28;20666;-70
2023/01/03 07:16:04;;;;;;;1999.90;999.90;;;6.40;99.90;;;;;;4993932;28;20294;-72
2023/01/03 07:18:30;;;;;;;1999.90;999.90;;;6.50;99.90;;;;;;4993593;28;20440;-70
2023/01/03 07:20:56;;;;;;;1999.90;999.90;;;6.50;99.90;;;;;;4993724;28;20173;-70
2023/01/03 07:23:21;;;;;;;1999.90;999.90;;;6.50;99.90;;;;;;4993549;28;20421;-71
2023/01/03 07:25:47;;;;;;;1999.90;999.90;;;6.50;99.90;;;;;;4993534;28;20706;-70
2023/01/03 07:28:14;;;;;;;1999.90;999.90;;;6.50;99.90;;;;;;4993289;28;20197;-70
2023/01/03 07:30:42;;;;;;;1999.90;999.90;;;6.40;99.90;;;;;;4993705;28;20212;-70
2023/01/03 07:33:10;;;;;;;1999.90;999.90;;;6.30;99.90;;;;;;4993404;28;20421;-70
2023/01/03 07:35:36;;;;;;;1999.90;999.90;;;6.30;99.90;;;;;;4993533;28;20456;-70
2023/01/03 07:38:03;;;;;;;1999.90;999.90;;;6.30;99.90;;;;;;4993016;28;20401;-70
2023/01/03 07:40:29;;;;;;;1999.90;999.90;;;6.30;99.90;;;;;;4993404;28;20413;-71
2023/01/03 07:45:41;;;;;;;1999.90;999.90;;;6.20;99.90;;;;;;4993253;28;20685;-71
2023/01/03 07:48:06;;;;;;;1999.90;999.90;;;6.20;99.90;;;;;;4993032;28;20907;-70
2023/01/03 07:50:32;;;;;;;1999.90;999.90;;;6.20;99.90;;;;;;4993186;28;20504;-70
2023/01/03 07:52:57;;;;;;;1999.90;999.90;;;6.20;99.90;;;;;;4992825;28;20624;-71
2023/01/03 07:55:23;;;;;;;1999.90;999.90;;;6.10;99.90;;;;;;4993119;28;20202;-71
2023/01/03 07:57:48;;;;;;;1999.90;999.90;;;6.30;99.90;;;;;;4992771;28;20170;-70
2023/01/03 08:00:15;;;;;;;1999.90;999.90;;;6.20;99.90;;;;;;4992941;28;20170;-70
2023/01/03 08:02:40;;;;;;;1999.90;999.90;;;;;;;;;;4992812;28;20245;-71
2023/01/03 08:05:06;;;;;;;1999.90;999.90;;;6.00;99.90;;;;;;4992896;28;20959;-71
2023/01/03 08:07:32;;;;;;;1999.90;999.90;;;6.20;99.90;;;;;;4992749;28;20451;-70
2023/01/03 08:15:26;;;;;;;1999.90;999.90;;;6.20;99.90;;;;;;4992855;28;20404;-70
2023/01/03 08:17:51;;;;;;;1999.90;999.90;;;6.20;99.90;;;;;;4992545;28;20412;-72
2023/01/03 08:20:17;;;;;;;1999.90;999.90;;;6.10;99.90;;;;;;4992723;28;20636;-71
2023/01/03 08:22:42;;;;;;;1999.90;999.90;;;6.10;99.90;;;;;;4992493;28;20546;-70
2023/01/03 08:25:08;;;;;;;1999.90;999.90;;;6.10;99.90;;;;;;4992703;28;20165;-70
2023/01/03 08:27:34;;;;;;;1999.90;999.90;;;6.20;99.90;;;;;;4992547;28;20174;-71
2023/01/03 08:29:59;;;;;;;1999.90;999.90;;;6.30;99.90;;;;;;4992487;28;20909;-71
2023/01/03 08:32:25;;;;;;;1999.90;999.90;;;6.30;99.90;;;;;;4992548;28;20205;-71
2023/01/03 08:34:51;;;;;;;1999.90;999.90;;;6.40;99.90;;;;;;4992473;28;20201;-71
2023/01/03 08:37:17;;;;;;;1999.90;999.90;;;6.50;99.90;;;;;;4992398;28;20248;-71
2023/01/03 08:39:48;;;;;;;1999.90;999.90;;;6.60;99.90;;;;;;4992389;28;20404;-70
2023/01/03 08:42:16;;;;;;;1999.90;999.90;;;6.80;99.90;;;;;;4992564;28;20173;-71
2023/01/03 08:44:43;;;;;;;1999.90;999.90;;;6.90;99.90;;;;;;4992438;28;20509;-69
2023/01/03 08:47:11;;;;;;;1999.90;999.90;;;7.00;99.90;;;;;;4992329;28;20416;-70
2023/01/03 08:49:38;;;;;;;1999.90;999.90;;;7.00;99.90;;;;;;4992246;28;20497;-70
2023/01/03 08:52:04;;;;;;;1999.90;999.90;;;7.20;99.90;;;;;;4992442;28;20453;-70
2023/01/03 08:54:29;;;;;;;1999.90;999.90;;;7.30;99.90;;;;;;4992216;28;20492;-70
2023/01/03 08:56:55;;;;;;;1999.90;999.90;;;7.40;99.90;;;;;;4992279;28;20764;-71
2023/01/03 08:59:20;;;;;;;1999.90;999.90;;;7.50;99.90;;;;;;4992211;28;20204;-71
2023/01/03 09:01:46;;;;;;;1999.90;999.90;;;7.60;99.90;;;;;;4992402;28;20235;-71
2023/01/03 09:04:11;;;;;;;1999.90;999.90;;;7.70;98.80;;;;;;4992246;28;20195;-71
2023/01/03 09:06:37;;;;;;;1999.90;999.90;;;7.90;90.50;;;;;;4992201;28;20175;-69
2023/01/03 09:09:04;;;;;;;1999.90;999.90;;;7.90;82.70;;;;;;4992177;28;20190;-71
2023/01/03 09:11:29;;;;;;;1999.90;999.90;;;8.10;67.50;;;;;;4992346;28;20203;-71
2023/01/03 09:13:55;;;;;;;1999.90;999.90;;;8.30;64.00;;;;;;4992227;28;20986;-69
2023/01/03 09:16:21;;;;;;;1999.90;999.90;;;8.40;42.40;;;;;;4992190;28;20173;-71
2023/01/03 09:18:46;;;;;;;1999.90;999.90;;;8.50;22.20;;;;;;4992063;28;20166;-71
2023/01/03 09:21:12;;;;;;;1999.90;999.90;;;8.60;4.90;;;;;;4992135;28;20639;-71
2023/01/03 09:23:37;;;;;;;1999.90;999.90;;;8.70;3.60;;;;;;4992103;28;20285;-70
2023/01/03 09:26:04;;;;;;;1999.90;999.90;;;8.80;1.00;;;;;;4992138;28;20172;-71
2023/01/03 09:28:29;;;;;;;1999.90;999.90;;;8.90;1.00;;;;;;4991993;28;20235;-70
2023/01/03 09:30:55;;;;;;;1999.90;999.90;;;9.00;1.00;;;;;;4992074;28;20455;-71
2023/01/03 09:33:21;;;;;;;1999.90;999.90;;;9.20;1.00;;;;;;4991863;28;20199;-70
2023/01/03 09:35:47;;;;;;;1999.90;999.90;;;9.10;1.00;;;;;;4994997;28;20166;-71
2023/01/03 09:38:12;;;;;;;1999.90;999.90;;;9.10;1.00;;;;;;4995384;28;20445;-70
2023/01/03 09:40:41;;;;;;;1999.90;999.90;;;9.20;1.00;;;;;;4995634;28;20166;-70
2023/01/03 09:43:14;;;;;;;1999.90;999.90;;;9.40;1.00;;;;;;4995539;28;20657;-71
2023/01/03 09:45:52;;;;;;;1999.90;999.90;;;9.20;1.00;;;;;;4995441;28;20410;-70
2023/01/03 09:48:24;;;;;;;1999.90;999.90;;;9.10;1.00;;;;;;4995389;28;20501;-71
2023/01/03 09:50:50;;;;;;;1999.90;999.90;;;9.10;1.00;;;;;;4995489;28;20526;-71
2023/01/03 10:05:20;;;;;;;1999.90;999.90;;;9.80;1.00;;;;;;4993430;28;20427;-70
2023/01/03 10:08:29;;;;;;;1999.90;999.90;;;10.00;1.00;;;;;;4993767;28;20409;-70
2023/01/03 10:11:25;;;;;;;1999.90;999.90;;;10.10;1.00;;;;;;4993043;28;20458;-70
2023/01/03 10:13:57;;;;;;;1999.90;999.90;;;10.10;1.00;;;;;;4993647;28;20493;-69
2023/01/03 10:17:00;;;;;;;1999.90;999.90;;;10.20;1.00;;;;;;4990423;28;20409;-69
2023/01/03 10:19:48;;;;;;;1999.90;999.90;;;10.20;1.00;;;;;;4992404;28;20412;-70
2023/01/03 10:22:20;;;;;;;1999.90;999.90;;;10.20;1.00;;;;;;4993420;28;20419;-71
2023/01/03 10:25:06;;;;;;;1999.90;999.90;;;10.30;99.90;;;;;;4992724;28;20469;-70
2023/01/03 10:27:34;;;;;;;1999.90;999.90;;;10.30;99.90;;;;;;4993089;28;20424;-71
2023/01/03 10:30:03;;;;;;;1999.90;999.90;;;10.30;99.90;;;;;;4992409;28;20396;-71
2023/01/03 10:32:51;;;;;;;1999.90;999.90;;;10.30;99.90;;;;;;4992440;28;20853;-71
2023/01/03 10:35:27;;;;;;;1999.90;999.90;;;10.40;99.90;;;;;;4993268;28;20409;-71
2023/01/03 10:37:54;;;;;;;1999.90;999.90;;;10.50;99.90;;;;;;4992834;28;20408;-71
2023/01/03 10:40:29;;;;;;;1999.90;999.90;;;10.60;99.90;;;;;;4992082;28;20412;-70
2023/01/03 10:42:55;;;;;;;1999.90;999.90;;;10.40;31.70;;;;;;4992983;28;20490;-70
2023/01/03 10:45:21;;;;;;;1999.90;999.90;;;10.50;1.00;;;;;;4992467;28;20548;-71
2023/01/03 10:48:00;;;;;;;1999.90;999.90;;;10.60;13.00;;;;;;4991488;28;20172;-71
2023/01/03 10:50:27;;;;;;;1999.90;999.90;;;10.70;97.00;;;;;;4991973;28;20414;-70
2023/01/03 10:53:14;;;;;;;1999.90;999.90;;;10.80;94.40;;;;;;4992493;28;20508;-71
2023/01/03 10:55:46;;;;;;;1999.90;999.90;;;10.90;80.50;;;;;;4992578;28;20411;-70
2023/01/03 10:58:15;;;;;;;1999.90;999.90;;;11.10;12.40;;;;;;4992428;28;20432;-70
2023/01/03 11:00:41;;;;;;;1999.90;999.90;;;11.20;99.90;;;;;;4991457;28;20412;-70
2023/01/03 11:03:16;;;;;;;1999.90;999.90;;;11.40;1.00;;;;;;4992598;28;20524;-71
2023/01/03 11:05:47;;;;;;;1999.90;999.90;;;11.20;99.90;;;;;;4992512;28;20442;-71
2023/01/03 11:08:23;;;;;;;1999.90;999.90;;;11.20;99.90;;;;;;4991915;28;20401;-71
2023/01/03 11:10:57;;;;;;;1999.90;999.90;;;11.30;96.80;;;;;;4991997;28;20973;-71
2023/01/03 11:13:39;;;;;;;1999.90;999.90;;;11.20;1.00;;;;;;4992642;28;20905;-71
2023/01/03 11:16:16;;;;;;;1999.90;999.90;;;11.20;1.00;;;;;;4991813;28;20417;-71
2023/01/03 11:18:42;;;;;;;1999.90;999.90;;;11.20;91.90;;;;;;4991930;28;20783;-71
2023/01/03 11:21:23;;;;;;;1999.90;999.90;;;11.30;99.90;;;;;;4991934;28;21166;-70
2023/01/03 11:23:55;;;;;;;1999.90;999.90;;;11.20;99.90;;;;;;4991637;28;20975;-71
2023/01/03 11:26:42;;;;;;;1999.90;999.90;;;11.10;99.90;;;;;;4992172;28;21041;-71
2023/01/03 11:29:23;;;;;;;1999.90;999.90;;;11.00;99.90;;;;;;4992639;28;20445;-72
2023/01/03 11:31:59;;;;;;;1999.90;999.90;;;10.80;1.00;;;;;;4992637;28;20450;-70
2023/01/03 11:34:30;;;;;;;1999.90;999.90;;;10.90;1.00;;;;;;4997195;28;20534;-71
2023/01/03 11:37:10;;;;;;;1999.90;999.90;;;10.90;1.00;;;;;;5005740;28;20461;-71
2023/01/03 11:39:54;;;;;;;1999.90;999.90;;;11.00;1.00;;;;;;4997065;28;20433;-71
2023/01/03 11:42:35;;;;;;;1999.90;999.90;;;10.90;1.00;;;;;;4989790;28;20461;-71
2023/01/03 11:45:20;;;;;;;1999.90;999.90;;;10.90;1.00;;;;;;4991087;28;20436;-69
2023/01/03 11:48:00;;;;;;;1999.90;999.90;;;10.90;1.00;;;;;;4992632;28;20771;-69
2023/01/03 11:50:48;;;;;;;1999.90;999.90;;;11.00;99.90;;;;;;4992749;28;20427;-69
2023/01/03 11:53:34;;;;;;;1999.90;999.90;;;11.10;99.90;;;;;;4997794;28;20497;-69
2023/01/03 11:56:06;;;;;;;1999.90;999.90;;;11.20;1.00;;;;;;4992880;28;20756;-69
2023/01/03 11:59:02;;;;;;;1999.90;999.90;;;11.10;1.00;;;;;;4992361;28;20388;-69
2023/01/03 12:01:47;;;;;;;1999.90;999.90;;;11.00;99.90;;;;;;4992192;28;20405;-69
2023/01/03 12:04:55;;;;;;;1999.90;999.90;;;11.00;99.90;;;;;;4992806;28;20439;-69
2023/01/03 12:07:33;;;;;;;1999.90;999.90;;;10.90;99.90;;;;;;4981691;28;20828;-69
2023/01/03 12:10:22;;;;;;;1999.90;999.90;;;10.90;99.90;;;;;;4996319;28;20413;-69
2023/01/03 12:13:19;;;;;;;1999.90;999.90;;;10.30;99.90;;;;;;4992519;28;21092;-69
2023/01/03 12:16:23;;;;;;;1999.90;999.90;;;10.80;99.90;;;;;;4991923;28;20442;-69
2023/01/03 12:18:58;;;;;;;1999.90;999.90;;;10.80;99.90;;;;;;4981332;28;20917;-69
2023/01/03 12:21:44;;;;;;;1999.90;999.90;;;10.80;99.90;;;;;;4993969;28;20408;-70
2023/01/03 12:24:16;;;;;;;1999.90;999.90;;;10.80;99.90;;;;;;4993791;28;20475;-70
2023/01/03 12:26:50;;;;;;;1999.90;999.90;;;11.50;99.90;;;;;;4993739;28;21052;-70
2023/01/03 12:29:31;;;;;;;1999.90;999.90;;;11.90;99.90;;;;;;4992646;28;20394;-70
2023/01/03 12:32:01;;;;;;;1999.90;999.90;;;12.60;99.90;;;;;;4992962;28;20500;-70
2023/01/03 12:34:47;;;;;;;1999.90;999.90;;;13.30;99.90;;;;;;4992699;28;20806;-71
2023/01/03 12:37:19;;;;;;;1999.90;999.90;;;13.80;99.90;;;;;;4991943;28;20449;-71
2023/01/03 12:40:20;;;;;;;1999.90;999.90;;;14.00;99.90;;;;;;4992430;28;20774;-71
2023/01/03 12:43:05;;;;;;;1999.90;999.90;;;13.00;99.90;;;;;;4993190;28;21277;-71
2023/01/03 12:45:41;;;;;;;1999.90;999.90;;;13.00;99.90;;;;;;4991914;28;20401;-71
2023/01/03 12:48:10;;;;;;;1999.90;999.90;;;12.70;99.90;;;;;;4992538;28;20406;-71
2023/01/03 12:50:48;;;;;;;1999.90;999.90;;;12.70;99.90;;;;;;4992318;28;20398;-71
2023/01/03 12:53:20;;;;;;;1999.90;999.90;;;12.80;99.90;;;;;;4991843;28;20451;-71
2023/01/03 12:56:29;;;;;;;1999.90;999.90;;;13.20;99.90;;;;;;4992556;28;20417;-70
2023/01/03 12:59:04;;;;;;;1999.90;999.90;;;13.10;99.90;;;;;;4991476;28;20407;-70
2023/01/03 13:01:52;;;;;;;1999.90;999.90;;;12.90;99.90;;;;;;4991821;28;20413;-70
2023/01/03 13:04:23;;;;;;;1999.90;999.90;;;12.90;99.90;;;;;;4991937;28;20513;-70
2023/01/03 13:07:06;;;;;;;1999.90;999.90;;;13.60;99.90;;;;;;4991393;28;20489;-70
2023/01/03 13:09:36;;;;;;;1999.90;999.90;;;14.40;99.90;;;;;;4992804;28;20825;-70
2023/01/03 13:12:14;;;;;;;1999.90;999.90;;;15.10;99.90;;;;;;4995614;28;20436;-71
2023/01/03 13:14:53;;;;;;;1999.90;999.90;;;15.00;99.90;;;;;;4995192;28;20797;-70
2023/01/03 13:17:24;;;;;;;1999.90;999.90;;;14.50;99.90;;;;;;4995424;28;20425;-70
2023/01/03 13:19:59;;;;;;;1999.90;999.90;;;14.30;99.90;;;;;;4995512;28;20838;-70
2023/01/03 13:22:51;;;;;;;1999.90;999.90;;;15.00;99.90;;;;;;4995041;28;20409;-70
2023/01/03 13:25:41;;;;;;;1999.90;999.90;;;15.80;99.90;;;;;;4995848;28;20429;-70
2023/01/03 13:28:28;;;;;;;1999.90;999.90;;;16.60;99.90;;;;;;4995260;28;20388;-70
2023/01/03 13:31:13;;;;;;;1999.90;999.90;;;16.90;99.90;;;;;;4995505;28;20523;-70
2023/01/03 13:34:10;;;;;;;1999.90;999.90;;;15.90;99.90;;;;;;4995244;28;20457;-70
2023/01/03 13:37:05;;;;;;;1999.90;999.90;;;14.70;99.90;;;;;;4994797;28;20403;-70